createdAt,value
2018-01-19T00:00:32.126Z,99580.20
2018-01-19T00:02:59.685Z,99577.58
2018-01-19T00:05:27.265Z,99581.28
2018-01-19T00:07:54.800Z,99584.21
2018-01-19T00:10:22.375Z,99585.98
2018-01-19T00:12:50.124Z,99589.55
2018-01-19T00:15:17.681Z,99598.81
2018-01-19T00:17:45.288Z,99593.07
2018-01-19T00:20:12.836Z,99591.58
2018-01-19T00:22:42.925Z,99588.98
2018-01-19T00:25:10.473Z,99585.71
2018-01-19T00:27:38.021Z,99581.48
2018-01-19T00:30:05.576Z,99585.00
2018-01-19T00:32:33.143Z,99584.92
2018-01-19T00:35:00.696Z,99585.61
2018-01-19T00:37:28.224Z,99589.17
2018-01-19T00:39:55.777Z,99592.73
2018-01-19T00:42:23.325Z,99593.27
2018-01-19T00:44:50.908Z,99592.17
2018-01-19T00:47:18.464Z,99595.42
2018-01-19T00:49:46.069Z,99592.17
2018-01-19T00:52:13.595Z,99593.06
2018-01-19T00:54:41.136Z,99592.25
2018-01-19T00:57:08.728Z,99598.16
2018-01-19T00:59:36.256Z,99602.14
2018-01-19T01:02:03.840Z,99600.16
2018-01-19T01:04:31.417Z,99603.69
2018-01-19T01:06:58.961Z,99613.03
2018-01-19T01:09:26.536Z,99615.08
2018-01-19T01:11:54.069Z,99612.44
2018-01-19T01:14:21.668Z,99606.04
2018-01-19T01:16:49.225Z,99611.17
2018-01-19T01:19:16.778Z,99614.11
2018-01-19T01:21:44.380Z,99609.52
2018-01-19T01:24:11.956Z,99618.13
2018-01-19T01:26:39.515Z,99616.94
2018-01-19T01:29:07.089Z,99614.84
2018-01-19T01:31:34.668Z,99616.25
2018-01-19T01:34:02.473Z,99616.06
2018-01-19T01:36:30.069Z,99625.58
2018-01-19T01:38:57.602Z,99627.97
2018-01-19T01:41:25.172Z,99628.61
2018-01-19T01:43:52.779Z,99629.70
2018-01-19T01:46:20.323Z,99635.83
2018-01-19T01:48:59.846Z,99635.87
2018-01-19T01:51:27.392Z,99636.39
2018-01-19T01:53:54.954Z,99640.57
2018-01-19T01:56:22.505Z,99640.13
2018-01-19T01:58:50.053Z,99636.30
2018-01-19T02:01:17.609Z,99628.30
2018-01-19T02:03:45.499Z,99631.96
2018-01-19T02:06:13.125Z,99632.47
2018-01-19T02:08:40.701Z,99635.98
2018-01-19T02:11:08.253Z,99635.27
2018-01-19T02:13:35.882Z,99627.83
2018-01-19T02:16:03.433Z,99631.48
2018-01-19T02:18:30.948Z,99623.66
2018-01-19T02:20:58.546Z,99626.02
2018-01-19T02:23:26.224Z,99636.70
2018-01-19T02:25:53.780Z,99633.66
2018-01-19T02:28:21.354Z,99635.31
2018-01-19T02:30:48.900Z,99637.10
2018-01-19T02:33:16.491Z,99644.31
2018-01-19T02:35:44.056Z,99643.87
2018-01-19T02:38:11.609Z,99647.22
2018-01-19T02:40:39.294Z,99651.14
2018-01-19T02:43:06.849Z,99659.64
2018-01-19T02:45:34.461Z,99661.12
2018-01-19T02:48:02.018Z,99663.73
2018-01-19T02:50:29.548Z,99661.25
2018-01-19T02:52:57.171Z,99666.70
2018-01-19T02:55:24.701Z,99659.66
2018-01-19T02:57:52.317Z,99658.36
2018-01-19T03:00:19.876Z,99662.36
2018-01-19T03:02:47.462Z,99670.41
2018-01-19T03:05:15.002Z,99669.19
2018-01-19T03:07:42.589Z,99667.97
2018-01-19T03:10:10.108Z,99667.09
2018-01-19T03:12:37.642Z,99667.56
2018-01-19T03:15:05.221Z,99661.78
2018-01-19T03:17:32.776Z,99665.92
2018-01-19T03:20:00.329Z,99667.88
2018-01-19T03:22:27.879Z,99667.75
2018-01-19T03:24:55.436Z,99667.56
2018-01-19T03:27:23.037Z,99674.71
2018-01-19T03:29:50.560Z,99672.00
2018-01-19T03:32:18.090Z,99668.52
2018-01-19T03:34:45.674Z,99670.70
2018-01-19T03:37:13.225Z,99667.78
2018-01-19T03:39:40.815Z,99669.83
2018-01-19T03:42:08.334Z,99680.05
2018-01-19T03:44:35.886Z,99680.31
2018-01-19T03:47:03.465Z,99680.91
2018-01-19T03:49:31.072Z,99685.19
2018-01-19T03:51:58.621Z,99687.64
2018-01-19T03:54:26.146Z,99685.79
2018-01-19T03:56:53.726Z,99697.04
2018-01-19T03:59:21.261Z,99690.81
2018-01-19T04:01:48.841Z,99693.64
2018-01-19T04:04:16.361Z,99690.32
2018-01-19T04:06:43.908Z,99697.08
2018-01-19T04:09:11.610Z,99695.00
2018-01-19T04:11:39.189Z,99692.62
2018-01-19T04:14:06.742Z,99695.70
2018-01-19T04:16:34.397Z,99694.34
2018-01-19T04:19:01.916Z,99697.74
2018-01-19T04:21:29.435Z,99698.63
2018-01-19T04:23:57.034Z,99693.14
2018-01-19T04:26:24.577Z,99696.14
2018-01-19T04:28:52.135Z,99708.80
2018-01-19T04:31:19.707Z,99708.71
2018-01-19T04:33:47.451Z,99716.06
2018-01-19T04:36:14.997Z,99711.41
2018-01-19T04:38:42.609Z,99709.25
2018-01-19T04:41:10.261Z,99717.72
2018-01-19T04:43:37.820Z,99727.27
2018-01-19T04:46:07.778Z,99727.96
2018-01-19T04:48:35.348Z,99732.91
2018-01-19T04:51:02.867Z,99731.03
2018-01-19T04:53:30.444Z,99735.61
2018-01-19T04:55:57.970Z,99733.30
2018-01-19T04:58:25.519Z,99745.77
2018-01-19T05:00:53.101Z,99748.20
2018-01-19T05:03:20.706Z,99746.84
2018-01-19T05:05:48.304Z,99747.90
2018-01-19T05:08:15.870Z,99754.94
2018-01-19T05:10:43.478Z,99761.64
2018-01-19T05:13:11.033Z,99756.61
2018-01-19T05:15:38.593Z,99752.46
2018-01-19T05:18:06.145Z,99749.76
2018-01-19T05:20:33.706Z,99754.36
2018-01-19T05:23:01.300Z,99756.06
2018-01-19T05:25:28.933Z,99758.97
2018-01-19T05:27:56.480Z,99761.65
2018-01-19T05:30:24.006Z,99768.61
2018-01-19T05:32:51.632Z,99768.60
2018-01-19T05:35:19.156Z,99773.99
2018-01-19T05:37:46.698Z,99773.01
2018-01-19T05:40:14.263Z,99777.81
2018-01-19T05:42:41.793Z,99783.84
2018-01-19T05:45:09.316Z,99780.17
2018-01-19T05:47:36.894Z,99782.45
2018-01-19T05:50:04.412Z,99783.47
2018-01-19T05:52:31.974Z,99783.11
2018-01-19T05:54:59.549Z,99789.13
2018-01-19T05:57:27.138Z,99791.87
2018-01-19T05:59:54.695Z,99792.30
2018-01-19T06:02:22.245Z,99796.44
2018-01-19T06:04:49.793Z,99797.09
2018-01-19T06:07:17.345Z,99811.05
2018-01-19T06:09:44.920Z,99810.03
2018-01-19T06:12:12.510Z,99812.61
2018-01-19T06:14:40.198Z,99817.97
2018-01-19T06:17:07.825Z,99820.39
2018-01-19T06:19:35.373Z,99829.17
2018-01-19T06:22:02.913Z,99831.30
2018-01-19T06:24:30.495Z,99835.53
2018-01-19T06:26:58.052Z,99836.75
2018-01-19T06:29:25.660Z,99843.33
2018-01-19T06:31:53.849Z,99837.23
2018-01-19T06:34:21.491Z,99846.37
2018-01-19T06:36:49.089Z,99850.30
2018-01-19T06:39:16.690Z,99851.07
2018-01-19T06:41:44.245Z,99843.23
2018-01-19T06:44:11.869Z,99851.68
2018-01-19T06:46:39.433Z,99847.85
2018-01-19T06:49:06.981Z,99851.03
2018-01-19T06:51:34.529Z,99848.80
2018-01-19T06:54:02.100Z,99852.86
2018-01-19T06:56:29.636Z,99852.34
2018-01-19T06:58:57.161Z,99854.11
2018-01-19T07:01:24.841Z,99865.31
2018-01-19T07:03:52.360Z,99874.11
2018-01-19T07:06:19.880Z,99882.29
2018-01-19T07:08:47.460Z,99887.05
2018-01-19T07:11:15.009Z,99884.60
2018-01-19T07:13:42.536Z,99887.34
2018-01-19T07:16:10.118Z,99883.11
2018-01-19T07:18:37.664Z,99894.05
2018-01-19T07:21:05.218Z,99887.56
2018-01-19T07:23:32.769Z,99896.06
2018-01-19T07:26:00.345Z,99897.16
2018-01-19T07:28:27.906Z,99904.02
2018-01-19T07:30:55.455Z,99909.64
2018-01-19T07:33:22.990Z,99910.81
2018-01-19T07:35:50.548Z,99912.95
2018-01-19T07:38:18.097Z,99916.97
2018-01-19T07:40:45.667Z,99917.36
2018-01-19T07:43:13.230Z,99922.89
2018-01-19T07:45:40.865Z,99925.81
2018-01-19T07:48:08.461Z,99926.23
2018-01-19T07:50:36.022Z,99933.00
2018-01-19T07:53:03.644Z,99940.10
2018-01-19T07:55:31.194Z,99941.63
2018-01-19T07:57:58.779Z,99943.66
2018-01-19T08:00:26.442Z,99945.50
2018-01-19T08:02:53.974Z,99950.91
2018-01-19T08:05:21.559Z,99944.81
2018-01-19T08:07:49.138Z,99948.34
2018-01-19T08:10:16.689Z,99951.20
2018-01-19T08:12:44.274Z,99954.70
2018-01-19T08:15:12.097Z,99960.27
2018-01-19T08:17:39.874Z,99959.12
2018-01-19T08:20:08.304Z,99968.28
2018-01-19T08:22:35.913Z,99966.55
2018-01-19T08:25:03.488Z,99969.38
2018-01-19T08:27:31.050Z,99973.00
2018-01-19T08:29:58.661Z,99979.14
2018-01-19T08:32:26.439Z,99984.25
2018-01-19T08:34:54.010Z,99994.44
2018-01-19T08:37:21.609Z,99996.59
2018-01-19T08:39:49.160Z,99999.26
2018-01-19T08:42:16.738Z,100002.83
2018-01-19T08:44:44.324Z,100001.28
2018-01-19T08:47:11.941Z,100014.38
2018-01-19T08:49:39.526Z,100010.90
2018-01-19T08:52:07.089Z,100027.22
2018-01-19T08:54:34.684Z,100024.59
2018-01-19T08:57:02.293Z,100026.03
2018-01-19T08:59:29.811Z,100025.52
2018-01-19T09:01:57.369Z,100017.16
2018-01-19T09:04:24.940Z,100023.06
2018-01-19T09:06:52.520Z,100026.20
2018-01-19T09:09:20.040Z,100038.81
2018-01-19T09:11:47.613Z,100030.18
2018-01-19T09:14:15.131Z,100039.50
2018-01-19T09:16:42.647Z,100042.64
2018-01-19T09:19:10.196Z,100048.63
2018-01-19T09:21:37.716Z,100045.50
2018-01-19T09:24:05.308Z,100047.58
2018-01-19T09:26:32.866Z,100046.58
2018-01-19T09:29:00.841Z,100048.19
2018-01-19T09:31:28.499Z,100047.48
2018-01-19T09:33:56.066Z,100059.25
2018-01-19T09:36:23.632Z,100058.09
2018-01-19T09:38:51.190Z,100060.14
2018-01-19T09:41:18.777Z,100060.62
2018-01-19T09:43:47.486Z,100053.98
2018-01-19T09:46:15.071Z,100058.30
2018-01-19T09:48:42.649Z,100067.33
2018-01-19T09:51:10.277Z,100066.68
2018-01-19T09:53:37.804Z,100075.88
2018-01-19T09:56:05.334Z,100079.06
2018-01-19T09:58:32.949Z,100076.27
2018-01-19T10:01:00.598Z,100077.66
2018-01-19T10:03:28.123Z,100092.23
2018-01-19T10:05:55.708Z,100090.80
2018-01-19T10:08:23.312Z,100093.11
2018-01-19T10:10:50.876Z,100090.41
2018-01-19T10:13:18.456Z,100092.70
2018-01-19T10:15:46.005Z,100095.98
2018-01-19T10:18:13.599Z,100089.84
2018-01-19T10:20:41.161Z,100092.40
2018-01-19T10:23:08.707Z,100090.52
2018-01-19T10:25:36.231Z,100092.73
2018-01-19T10:28:03.816Z,100088.23
2018-01-19T10:30:31.474Z,100089.58
2018-01-19T10:32:59.015Z,100090.05
2018-01-19T10:35:26.636Z,100092.38
2018-01-19T10:37:54.204Z,100094.19
2018-01-19T10:40:21.728Z,100093.43
2018-01-19T10:42:49.357Z,100098.05
2018-01-19T10:45:16.911Z,100091.62
2018-01-19T10:47:44.444Z,100096.84
2018-01-19T10:50:12.053Z,100094.16
2018-01-19T10:52:39.614Z,100097.67
2018-01-19T10:55:07.205Z,100090.50
2018-01-19T10:57:34.772Z,100093.26
2018-01-19T11:00:02.334Z,100102.11
2018-01-19T11:02:29.913Z,100096.88
2018-01-19T11:04:57.469Z,100093.41
2018-01-19T11:07:25.021Z,100092.91
2018-01-19T11:09:52.694Z,100094.63
2018-01-19T11:12:20.291Z,100091.84
2018-01-19T11:14:47.842Z,100093.95
2018-01-19T11:17:15.356Z,100094.28
2018-01-19T11:19:42.964Z,100100.99
2018-01-19T11:22:10.531Z,100101.84
2018-01-19T11:24:38.082Z,100106.91
2018-01-19T11:27:05.686Z,100106.50
2018-01-19T11:29:33.246Z,100102.49
2018-01-19T11:32:00.776Z,100097.38
2018-01-19T11:34:28.323Z,100089.27
2018-01-19T11:36:55.920Z,100091.88
2018-01-19T11:39:23.506Z,100093.88
2018-01-19T11:41:51.076Z,100093.09
2018-01-19T11:44:18.598Z,100087.98
2018-01-19T11:46:46.113Z,100076.92
2018-01-19T11:49:13.683Z,100071.05
2018-01-19T11:51:41.186Z,100068.02
2018-01-19T11:54:08.732Z,100068.53
2018-01-19T11:56:36.334Z,100072.09
2018-01-19T11:59:03.993Z,100072.22
2018-01-19T12:01:31.568Z,100072.88
2018-01-19T12:03:59.138Z,100074.58
2018-01-19T12:06:26.829Z,100075.77
2018-01-19T12:08:54.365Z,100073.02
2018-01-19T12:11:21.911Z,100076.55
2018-01-19T12:13:49.517Z,100066.55
2018-01-19T12:16:17.049Z,100071.02
2018-01-19T12:18:44.555Z,100068.27
2018-01-19T12:21:12.138Z,100063.81
2018-01-19T12:23:39.651Z,100060.41
2018-01-19T12:26:07.197Z,100061.05
2018-01-19T12:28:34.786Z,100065.00
2018-01-19T12:31:02.338Z,100059.77
2018-01-19T12:33:29.880Z,100061.20
2018-01-19T12:35:57.495Z,100068.55
2018-01-19T12:38:25.041Z,100069.88
2018-01-19T12:40:52.569Z,100063.91
2018-01-19T12:43:20.189Z,100063.53
2018-01-19T12:45:47.725Z,100065.38
2018-01-19T12:48:15.282Z,100065.92
2018-01-19T12:50:42.832Z,100068.03
2018-01-19T12:53:10.403Z,100067.87
2018-01-19T12:55:37.915Z,100061.45
2018-01-19T12:58:05.485Z,100061.33
2018-01-19T13:00:33.028Z,100071.30
2018-01-19T13:03:00.621Z,100061.84
2018-01-19T13:05:28.148Z,100063.68
2018-01-19T13:07:55.675Z,100061.59
2018-01-19T13:10:23.258Z,100062.34
2018-01-19T13:12:50.810Z,100058.03
2018-01-19T13:15:18.414Z,100065.13
2018-01-19T13:17:45.933Z,100065.07
2018-01-19T13:20:13.474Z,100059.43
2018-01-19T13:22:41.049Z,100059.48
2018-01-19T13:25:08.606Z,100066.83
2018-01-19T13:27:36.123Z,100066.05
2018-01-19T13:30:03.797Z,100068.94
2018-01-19T13:32:31.350Z,100070.48
2018-01-19T13:34:58.956Z,100073.40
2018-01-19T13:37:26.518Z,100071.36
2018-01-19T13:39:54.044Z,100074.95
2018-01-19T13:42:21.584Z,100073.94
2018-01-19T13:44:49.101Z,100073.94
2018-01-19T13:47:16.673Z,100074.98
2018-01-19T13:49:44.179Z,100071.05
2018-01-19T13:52:11.698Z,100072.64
2018-01-19T13:54:39.246Z,100078.15
2018-01-19T13:57:06.809Z,100073.64
2018-01-19T13:59:34.429Z,100073.12
2018-01-19T14:02:02.001Z,100069.55
2018-01-19T14:04:29.557Z,100066.27
2018-01-19T14:06:57.135Z,100066.52
2018-01-19T14:09:24.689Z,100066.56
2018-01-19T14:11:52.258Z,100068.78
2018-01-19T14:14:19.833Z,100072.87
2018-01-19T14:16:47.376Z,100067.48
2018-01-19T14:19:14.989Z,100060.77
2018-01-19T14:21:42.558Z,100063.13
2018-01-19T14:24:10.073Z,100063.86
2018-01-19T14:26:37.644Z,100061.89
2018-01-19T14:29:05.200Z,100067.70
2018-01-19T14:31:32.748Z,100069.00
2018-01-19T14:34:00.260Z,100071.02
2018-01-19T14:36:27.838Z,100069.94
2018-01-19T14:38:55.381Z,100075.34
2018-01-19T14:41:22.993Z,100077.28
2018-01-19T14:43:51.554Z,100074.81
2018-01-19T14:46:19.105Z,100075.45
2018-01-19T14:48:46.701Z,100075.03
2018-01-19T14:51:14.309Z,100077.19
2018-01-19T14:53:41.849Z,100075.86
2018-01-19T14:56:09.458Z,100076.54
2018-01-19T14:58:37.094Z,100079.58
2018-01-19T15:01:04.637Z,100081.41
2018-01-19T15:03:32.184Z,100081.62
2018-01-19T15:05:59.782Z,100077.70
2018-01-19T15:08:27.334Z,100085.36
2018-01-19T15:10:54.880Z,100089.42
2018-01-19T15:13:22.457Z,100087.70
2018-01-19T15:15:50.011Z,100089.95
2018-01-19T15:18:17.570Z,100093.73
2018-01-19T15:20:45.110Z,100092.67
2018-01-19T15:23:12.637Z,100096.21
2018-01-19T15:25:40.269Z,100089.36
2018-01-19T15:28:07.798Z,100096.34
2018-01-19T15:30:35.341Z,100082.55
2018-01-19T15:33:02.883Z,100092.48
2018-01-19T15:35:30.439Z,100090.02
2018-01-19T15:37:57.989Z,100093.14
2018-01-19T15:40:25.559Z,100094.83
2018-01-19T15:42:53.160Z,100094.83
2018-01-19T15:45:20.774Z,100099.90
2018-01-19T15:47:48.305Z,100093.19
2018-01-19T15:50:15.918Z,100097.47
2018-01-19T15:52:43.460Z,100092.88
2018-01-19T15:55:10.990Z,100094.89
2018-01-19T15:57:38.599Z,100090.55
2018-01-19T16:00:06.190Z,100097.75
2018-01-19T16:02:33.742Z,100094.89
2018-01-19T16:05:01.409Z,100087.53
2018-01-19T16:07:28.924Z,100092.55
2018-01-19T16:09:56.477Z,100091.52
2018-01-19T16:12:24.076Z,100093.09
2018-01-19T16:14:51.621Z,100090.34
2018-01-19T16:17:19.201Z,100095.69
2018-01-19T16:19:46.786Z,100096.80
2018-01-19T16:22:14.303Z,100096.38
2018-01-19T16:24:41.997Z,100092.25
2018-01-19T16:27:09.532Z,100094.58
2018-01-19T16:29:37.077Z,100097.95
2018-01-19T16:32:04.678Z,100093.70
2018-01-19T16:34:32.229Z,100102.86
2018-01-19T16:36:59.865Z,100100.08
2018-01-19T16:39:27.447Z,100095.81
2018-01-19T16:41:55.045Z,100097.30
2018-01-19T16:44:22.588Z,100098.64
2018-01-19T16:46:50.113Z,100096.58
2018-01-19T16:49:17.712Z,100095.72
2018-01-19T16:51:45.260Z,100094.02
2018-01-19T16:54:12.822Z,100097.02
2018-01-19T16:56:40.401Z,100099.69
2018-01-19T16:59:07.949Z,100090.52
2018-01-19T17:01:35.532Z,100094.72
2018-01-19T17:04:03.138Z,100095.13
2018-01-19T17:06:30.660Z,100112.88
2018-01-19T17:08:58.167Z,100111.37
2018-01-19T17:11:25.749Z,100113.30
2018-01-19T17:13:53.334Z,100114.30
2018-01-19T17:16:21.010Z,100112.08
2018-01-19T17:18:48.617Z,100114.34
2018-01-19T17:21:16.188Z,100108.10
2018-01-19T17:23:43.718Z,100119.22
2018-01-19T17:26:11.329Z,100124.16
2018-01-19T17:28:38.876Z,100126.78
2018-01-19T17:31:06.401Z,100124.67
2018-01-19T17:33:33.992Z,100125.77
2018-01-19T17:36:01.582Z,100130.95
2018-01-19T17:38:29.114Z,100123.06
2018-01-19T17:40:56.706Z,100127.85
2018-01-19T17:43:24.325Z,100121.87
2018-01-19T17:45:52.007Z,100125.14
2018-01-19T17:48:19.581Z,100129.31
2018-01-19T17:50:47.095Z,100127.31
2018-01-19T17:53:14.692Z,100129.48
2018-01-19T17:55:42.305Z,100125.89
2018-01-19T17:58:09.867Z,100122.27
2018-01-19T18:00:37.445Z,100124.94
2018-01-19T18:03:04.969Z,100127.14
2018-01-19T18:05:32.565Z,100125.82
2018-01-19T18:08:00.097Z,100121.06
2018-01-19T18:10:27.629Z,100118.00
2018-01-19T18:12:55.185Z,100120.27
2018-01-19T18:15:22.759Z,100106.77
2018-01-19T18:17:50.344Z,100117.75
2018-01-19T18:20:17.898Z,100114.06
2018-01-19T18:22:45.479Z,100112.83
2018-01-19T18:25:13.042Z,100107.93
2018-01-19T18:27:40.606Z,100111.48
2018-01-19T18:30:08.192Z,100109.95
2018-01-19T18:32:35.725Z,100108.52
2018-01-19T18:35:03.299Z,100107.36
2018-01-19T18:37:30.849Z,100107.66
2018-01-19T18:39:58.385Z,100112.52
2018-01-19T18:42:25.960Z,100114.06
2018-01-19T18:44:53.489Z,100108.86
2018-01-19T18:47:21.041Z,100110.30
2018-01-19T18:49:48.629Z,100108.39
2018-01-19T18:52:16.202Z,100107.86
2018-01-19T18:54:43.752Z,100109.88
2018-01-19T18:57:11.299Z,100112.31
2018-01-19T18:59:38.862Z,100114.19
2018-01-19T19:02:06.493Z,100113.88
2018-01-19T19:04:34.022Z,100112.25
2018-01-19T19:07:01.544Z,100111.63
2018-01-19T19:09:29.158Z,100108.80
2018-01-19T19:11:56.716Z,100110.08
2018-01-19T19:14:24.266Z,100104.99
2018-01-19T19:16:51.888Z,100108.64
2018-01-19T19:19:19.454Z,100104.49
2018-01-19T19:21:47.002Z,100103.28
2018-01-19T19:24:14.585Z,100107.09
2018-01-19T19:26:42.163Z,100108.58
2018-01-19T19:29:09.694Z,100105.84
2018-01-19T19:31:37.349Z,100103.95
2018-01-19T19:34:04.961Z,100109.77
2018-01-19T19:36:32.530Z,100106.55
2018-01-19T19:39:00.055Z,100111.91
2018-01-19T19:41:27.644Z,100111.63
2018-01-19T19:43:55.312Z,100112.17
2018-01-19T19:46:22.926Z,100106.28
2018-01-19T19:48:50.493Z,100109.19
2018-01-19T19:51:18.093Z,100107.00
2018-01-19T19:53:45.654Z,100109.94
2018-01-19T19:56:13.383Z,100111.04
2018-01-19T19:58:41.164Z,100119.22
2018-01-19T20:01:08.808Z,100112.94
2018-01-19T20:03:36.385Z,100115.25
2018-01-19T20:06:03.977Z,100115.30
2018-01-19T20:08:31.765Z,100105.20
2018-01-19T20:10:59.334Z,100112.13
2018-01-19T20:13:27.012Z,100112.00
2018-01-19T20:15:54.601Z,100104.86
2018-01-19T20:18:22.227Z,100112.95
2018-01-19T20:20:49.790Z,100118.83
2018-01-19T20:23:17.358Z,100118.18
2018-01-19T20:25:45.184Z,100119.51
2018-01-19T20:28:12.938Z,100118.63
2018-01-19T20:30:40.467Z,100119.19
2018-01-19T20:33:08.025Z,100124.81
2018-01-19T20:35:35.621Z,100129.44
2018-01-19T20:38:03.173Z,100123.96
2018-01-19T20:40:30.734Z,100129.70
2018-01-19T20:42:58.453Z,100127.12
2018-01-19T20:45:26.022Z,100125.36
2018-01-19T20:47:53.674Z,100126.30
2018-01-19T20:50:21.243Z,100120.21
2018-01-19T20:52:48.900Z,100124.17
2018-01-19T20:55:16.481Z,100119.44
2018-01-19T20:57:44.143Z,100127.86
2018-01-19T21:00:11.790Z,100122.77
2018-01-19T21:02:39.405Z,100112.89
2018-01-19T21:05:06.973Z,100111.81
2018-01-19T21:07:34.763Z,100116.16
2018-01-19T21:10:02.336Z,100112.52
2018-01-19T21:12:29.880Z,100115.79
2018-01-19T21:14:57.445Z,100125.70
2018-01-19T21:17:25.134Z,100119.06
2018-01-19T21:19:52.872Z,100122.30
2018-01-19T21:22:20.413Z,100121.02
2018-01-19T21:24:48.125Z,100124.00
2018-01-19T21:27:15.668Z,100124.95
2018-01-19T21:29:43.249Z,100127.90
2018-01-19T21:32:11.112Z,100124.97
2018-01-19T21:34:38.665Z,100130.59
2018-01-19T21:37:06.266Z,100129.67
2018-01-19T21:39:33.831Z,100133.33
2018-01-19T21:42:01.681Z,100132.63
2018-01-19T21:44:29.265Z,100136.41
2018-01-19T21:46:56.821Z,100132.61
2018-01-19T21:49:24.515Z,100133.18
2018-01-19T21:51:52.063Z,100144.05
2018-01-19T21:54:19.607Z,100145.37
2018-01-19T21:56:47.229Z,100138.53
2018-01-19T21:59:14.787Z,100143.84
2018-01-19T22:01:42.349Z,100143.95
2018-01-19T22:04:10.003Z,100144.35
2018-01-19T22:06:37.549Z,100143.62
2018-01-19T22:09:05.120Z,100137.55
2018-01-19T22:11:32.668Z,100131.89
2018-01-19T22:14:00.254Z,100137.89
2018-01-19T22:16:28.028Z,100130.97
2018-01-19T22:18:55.555Z,100138.33
2018-01-19T22:21:23.130Z,100133.92
2018-01-19T22:23:50.744Z,100127.97
2018-01-19T22:26:18.385Z,100131.67
2018-01-19T22:28:45.964Z,100128.39
2018-01-19T22:31:13.663Z,100129.77
2018-01-19T22:33:41.657Z,100129.34
2018-01-19T22:36:09.314Z,100125.16
2018-01-19T22:38:36.908Z,100126.06
2018-01-19T22:41:04.437Z,100125.97
2018-01-19T22:43:32.028Z,100130.33
2018-01-19T22:45:59.556Z,100136.62
2018-01-19T22:48:27.141Z,100131.13
2018-01-19T22:50:54.852Z,100134.02
2018-01-19T22:53:22.418Z,100126.52
2018-01-19T22:55:50.215Z,100121.31
2018-01-19T22:58:17.728Z,100123.06
2018-01-19T23:00:45.375Z,100119.85
2018-01-19T23:03:12.929Z,100123.48
2018-01-19T23:05:40.452Z,100119.45
2018-01-19T23:08:08.022Z,100123.00
2018-01-19T23:10:35.671Z,100122.84
2018-01-19T23:13:03.402Z,100122.36
2018-01-19T23:15:31.907Z,100131.83
2018-01-19T23:17:59.464Z,100125.40
2018-01-19T23:20:26.992Z,100135.26
2018-01-19T23:22:54.565Z,100133.70
2018-01-19T23:25:22.101Z,100124.19
2018-01-19T23:27:49.766Z,100118.24
2018-01-19T23:30:17.321Z,100120.19
2018-01-19T23:32:44.897Z,100115.20
2018-01-19T23:35:12.464Z,100119.78
2018-01-19T23:37:40.060Z,100117.60
2018-01-19T23:40:07.622Z,100106.16
2018-01-19T23:42:35.189Z,100111.27
2018-01-19T23:45:02.740Z,100108.20
2018-01-19T23:47:30.297Z,100114.09
2018-01-19T23:49:57.903Z,100107.36
2018-01-19T23:52:25.469Z,100107.41
2018-01-19T23:54:53.021Z,100104.50
2018-01-19T23:57:20.637Z,100113.72
2018-01-19T23:59:48.181Z,100120.15
